createdAt,value
2023-02-15T00:00:50.888Z,88.60
2023-02-15T00:05:52.900Z,88.05
2023-02-15T00:10:54.852Z,87.95
2023-02-15T00:16:02.384Z,88.01
2023-02-15T00:21:06.018Z,87.70
2023-02-15T00:26:09.389Z,87.74
2023-02-15T00:31:12.510Z,88.63
2023-02-15T00:36:15.057Z,88.20
2023-02-15T00:41:16.920Z,88.16
2023-02-15T00:46:18.946Z,88.89
2023-02-15T00:51:20.990Z,88.80
2023-02-15T00:56:22.921Z,87.68
2023-02-15T01:01:24.872Z,87.37
2023-02-15T01:06:26.947Z,86.99
2023-02-15T01:11:28.801Z,86.30
2023-02-15T01:16:30.679Z,85.92
2023-02-15T01:21:32.612Z,86.48
2023-02-15T01:26:34.535Z,87.58
2023-02-15T01:31:36.560Z,87.61
2023-02-15T01:36:38.461Z,86.92
2023-02-15T01:41:40.411Z,85.71
2023-02-15T01:46:52.390Z,85.08
2023-02-15T01:51:54.324Z,84.67
2023-02-15T01:56:56.767Z,84.08
2023-02-15T02:01:59.473Z,83.07
2023-02-15T02:07:01.365Z,82.57
2023-02-15T02:12:03.333Z,82.76
2023-02-15T02:17:17.061Z,81.55
2023-02-15T02:22:46.383Z,81.62
2023-02-15T02:27:49.583Z,81.39
2023-02-15T02:33:16.593Z,80.94
2023-02-15T02:38:30.233Z,81.04
2023-02-15T02:43:49.379Z,80.89
2023-02-15T02:48:51.253Z,80.79
2023-02-15T02:53:54.689Z,80.32
2023-02-15T02:59:02.868Z,80.74
2023-02-15T03:04:19.868Z,80.55
2023-02-15T03:09:24.921Z,80.22
2023-02-15T03:14:26.853Z,80.86
2023-02-15T03:19:30.774Z,80.67
2023-02-15T03:24:37.404Z,81.63
2023-02-15T03:29:39.318Z,81.69
2023-02-15T03:34:41.259Z,81.89
2023-02-15T03:39:47.631Z,81.79
2023-02-15T03:44:56.920Z,81.12
2023-02-15T03:50:10.135Z,79.15
2023-02-15T03:55:11.817Z,77.95
2023-02-15T04:00:24.553Z,78.66
2023-02-15T04:05:26.459Z,78.26
2023-02-15T04:10:28.473Z,77.56
2023-02-15T04:15:30.579Z,76.64
2023-02-15T04:20:33.282Z,77.37
2023-02-15T04:25:35.945Z,77.06
2023-02-15T04:30:37.922Z,76.34
2023-02-15T04:35:39.878Z,76.87
2023-02-15T04:40:42.011Z,76.73
2023-02-15T04:45:49.506Z,77.03
2023-02-15T04:50:51.354Z,76.90
2023-02-15T04:55:53.153Z,76.60
2023-02-15T05:00:58.128Z,77.02
2023-02-15T05:06:00.132Z,77.08
2023-02-15T05:11:02.068Z,76.65
2023-02-15T05:16:04.141Z,76.83
2023-02-15T05:21:06.065Z,76.89
2023-02-15T05:26:09.116Z,76.80
2023-02-15T05:31:15.487Z,76.92
2023-02-15T05:36:17.355Z,76.80
2023-02-15T05:41:19.170Z,75.69
2023-02-15T05:46:22.286Z,76.29
2023-02-15T05:51:24.107Z,76.92
2023-02-15T05:56:25.886Z,76.11
2023-02-15T06:01:27.686Z,76.33
2023-02-15T06:06:29.496Z,75.02
2023-02-15T06:11:31.326Z,75.35
2023-02-15T06:16:33.089Z,76.02
2023-02-15T06:21:34.935Z,75.99
2023-02-15T06:26:36.714Z,75.81
2023-02-15T06:31:38.689Z,74.16
2023-02-15T06:36:40.540Z,75.10
2023-02-15T06:41:42.775Z,74.11
2023-02-15T06:46:44.555Z,73.62
2023-02-15T06:51:46.354Z,73.43
2023-02-15T06:56:48.155Z,74.32
2023-02-15T07:01:51.292Z,72.93
2023-02-15T07:06:54.190Z,73.21
2023-02-15T07:11:56.070Z,72.13
2023-02-15T07:16:57.885Z,72.26
2023-02-15T07:21:59.667Z,72.61
2023-02-15T07:27:01.445Z,72.62
2023-02-15T07:32:03.440Z,72.70
2023-02-15T07:37:05.248Z,73.04
2023-02-15T07:42:07.030Z,73.94
2023-02-15T07:47:08.800Z,73.44
2023-02-15T07:52:10.575Z,73.81
2023-02-15T07:57:12.372Z,73.54
2023-02-15T08:02:14.171Z,73.73
2023-02-15T08:07:15.966Z,73.11
2023-02-15T08:12:17.741Z,73.33
2023-02-15T08:17:19.519Z,72.39
2023-02-15T08:22:21.266Z,73.02
2023-02-15T08:27:23.050Z,72.27
2023-02-15T08:32:25.077Z,70.43
2023-02-15T08:37:27.122Z,70.70
2023-02-15T08:42:28.891Z,71.79
2023-02-15T08:47:30.719Z,71.34
2023-02-15T08:52:32.526Z,71.91
2023-02-15T08:57:34.277Z,71.17
2023-02-15T09:02:36.136Z,71.58
2023-02-15T09:07:37.942Z,70.50
2023-02-15T09:12:39.759Z,69.97
2023-02-15T09:17:41.567Z,70.48
2023-02-15T09:22:43.389Z,69.79
2023-02-15T09:27:45.170Z,69.72
2023-02-15T09:32:46.937Z,69.66
2023-02-15T09:37:48.718Z,70.07
2023-02-15T09:43:06.227Z,70.03
2023-02-15T09:48:21.364Z,70.67
2023-02-15T09:54:04.674Z,70.42
2023-02-15T09:59:12.351Z,72.86
2023-02-15T10:04:32.717Z,73.61
2023-02-15T10:09:46.451Z,72.42
2023-02-15T10:15:25.881Z,72.40
2023-02-15T10:20:49.071Z,71.70
2023-02-15T10:26:09.081Z,71.73
2023-02-15T10:31:17.898Z,71.68
2023-02-15T10:37:01.703Z,72.54
2023-02-15T10:42:25.005Z,73.73
2023-02-15T10:47:54.553Z,72.83
2023-02-15T10:53:11.050Z,73.53
2023-02-15T10:58:18.934Z,73.64
2023-02-15T11:03:29.255Z,73.89
2023-02-15T11:08:33.052Z,74.13
2023-02-15T11:13:38.072Z,74.74
2023-02-15T11:18:48.178Z,75.71
2023-02-15T11:23:49.962Z,74.87
2023-02-15T11:29:08.861Z,75.30
2023-02-15T11:34:20.224Z,75.06
2023-02-15T11:39:21.979Z,74.45
2023-02-15T11:44:32.661Z,73.68
2023-02-15T11:49:35.270Z,73.80
2023-02-15T11:54:37.169Z,74.14
2023-02-15T11:59:38.931Z,74.37
2023-02-15T12:04:42.317Z,73.20
2023-02-15T12:09:49.753Z,72.14
2023-02-15T12:14:53.358Z,70.46
2023-02-15T12:19:57.714Z,69.83
2023-02-15T12:25:00.887Z,69.73
2023-02-15T12:30:31.417Z,68.53
2023-02-15T12:35:34.880Z,68.61
2023-02-15T12:40:36.909Z,68.89
2023-02-15T12:45:39.172Z,70.46
2023-02-15T12:50:42.029Z,70.22
2023-02-15T12:55:54.536Z,71.36
2023-02-15T13:01:04.416Z,71.78
2023-02-15T13:06:06.552Z,71.24
2023-02-15T13:11:11.862Z,70.94
2023-02-15T13:16:14.310Z,70.32
2023-02-15T13:21:21.366Z,71.12
2023-02-15T13:26:23.757Z,70.91
2023-02-15T13:31:27.624Z,70.89
2023-02-15T13:36:38.675Z,71.22
2023-02-15T13:42:01.460Z,71.67
2023-02-15T13:47:22.512Z,71.26
2023-02-15T13:52:28.404Z,70.78
2023-02-15T13:57:48.961Z,70.78
2023-02-15T14:03:07.177Z,70.47
2023-02-15T14:08:22.630Z,70.25
2023-02-15T14:13:51.648Z,68.70
2023-02-15T14:19:15.614Z,69.71
2023-02-15T14:24:31.523Z,70.03
2023-02-15T14:29:54.249Z,72.13
2023-02-15T14:35:03.421Z,72.21
2023-02-15T14:40:30.299Z,71.68
2023-02-15T14:45:35.180Z,71.82
2023-02-15T14:50:36.889Z,71.45
2023-02-15T14:55:38.892Z,70.59
2023-02-15T15:00:41.759Z,70.72
2023-02-15T15:05:54.132Z,71.60
2023-02-15T15:10:55.998Z,71.52
2023-02-15T15:15:58.286Z,71.04
2023-02-15T15:21:00.247Z,71.14
2023-02-15T15:26:26.631Z,71.39
2023-02-15T15:31:53.438Z,71.60
2023-02-15T15:37:16.904Z,71.82
2023-02-15T15:42:27.670Z,72.48
2023-02-15T15:47:58.864Z,71.98
2023-02-15T15:53:07.277Z,71.19
2023-02-15T15:58:09.198Z,71.31
2023-02-15T16:03:21.515Z,70.88
2023-02-15T16:08:37.160Z,72.39
2023-02-15T16:13:41.628Z,71.91
2023-02-15T16:18:43.577Z,72.33
2023-02-15T16:24:00.954Z,71.24
2023-02-15T16:29:02.759Z,71.57
2023-02-15T16:34:17.614Z,72.39
2023-02-15T16:39:20.706Z,72.63
2023-02-15T16:44:22.605Z,72.52
2023-02-15T16:49:29.526Z,74.71
2023-02-15T16:54:31.448Z,74.21
2023-02-15T16:59:36.114Z,73.19
2023-02-15T17:04:38.081Z,74.38
2023-02-15T17:09:49.615Z,73.98
2023-02-15T17:14:51.690Z,73.87
2023-02-15T17:19:54.834Z,75.29
2023-02-15T17:25:01.521Z,74.39
2023-02-15T17:30:16.907Z,74.28
2023-02-15T17:35:40.556Z,74.16
2023-02-15T17:40:45.441Z,75.04
2023-02-15T17:45:51.026Z,74.94
2023-02-15T17:50:53.040Z,75.35
2023-02-15T17:55:55.041Z,76.08
2023-02-15T18:00:58.651Z,76.16
2023-02-15T18:06:00.688Z,75.44
2023-02-15T18:11:02.857Z,75.67
2023-02-15T18:16:06.437Z,75.96
2023-02-15T18:21:09.754Z,74.81
2023-02-15T18:26:17.348Z,76.43
2023-02-15T18:31:19.594Z,75.13
2023-02-15T18:36:32.204Z,75.64
2023-02-15T18:41:34.133Z,75.24
2023-02-15T18:46:35.942Z,75.22
2023-02-15T18:51:37.926Z,75.80
2023-02-15T18:56:39.774Z,76.43
2023-02-15T19:01:41.720Z,77.56
2023-02-15T19:06:48.079Z,79.50
2023-02-15T19:11:52.322Z,79.67
2023-02-15T19:16:54.838Z,78.63
2023-02-15T19:21:56.645Z,79.09
2023-02-15T19:26:58.495Z,79.46
2023-02-15T19:32:00.523Z,78.95
2023-02-15T19:37:02.600Z,78.48
2023-02-15T19:42:05.370Z,78.36
2023-02-15T19:47:12.067Z,78.27
2023-02-15T19:52:18.905Z,77.59
2023-02-15T19:57:20.890Z,76.20
2023-02-15T20:02:22.862Z,77.14
2023-02-15T20:07:27.683Z,78.92
2023-02-15T20:12:29.599Z,80.12
2023-02-15T20:17:31.615Z,81.91
2023-02-15T20:22:33.565Z,81.66
2023-02-15T20:27:35.473Z,81.25
2023-02-15T20:32:37.339Z,80.75
2023-02-15T20:37:39.300Z,79.80
2023-02-15T20:42:41.230Z,79.76
2023-02-15T20:47:43.207Z,79.12
2023-02-15T20:52:45.757Z,79.76
2023-02-15T20:57:47.471Z,79.61
2023-02-15T21:02:53.040Z,79.14
2023-02-15T21:07:54.929Z,79.24
2023-02-15T21:12:57.364Z,80.96
2023-02-15T21:18:01.664Z,81.81
2023-02-15T21:23:04.321Z,81.17
2023-02-15T21:28:06.384Z,80.37
2023-02-15T21:33:08.343Z,79.51
2023-02-15T21:38:14.165Z,79.02
2023-02-15T21:43:17.282Z,79.91
2023-02-15T21:48:19.263Z,79.82
2023-02-15T21:53:30.327Z,79.69
2023-02-15T21:58:33.543Z,79.45
2023-02-15T22:03:37.266Z,80.17
2023-02-15T22:08:39.262Z,79.31
2023-02-15T22:13:41.347Z,79.30
2023-02-15T22:18:43.287Z,79.25
2023-02-15T22:23:45.194Z,78.61
2023-02-15T22:28:47.224Z,78.53
2023-02-15T22:33:49.374Z,78.24
2023-02-15T22:38:51.536Z,78.68
2023-02-15T22:43:53.492Z,77.80
2023-02-15T22:48:55.469Z,80.93
2023-02-15T22:53:57.423Z,80.86
2023-02-15T22:59:01.494Z,79.61
2023-02-15T23:04:04.226Z,79.44
2023-02-15T23:09:06.343Z,78.85
2023-02-15T23:14:19.331Z,80.16
2023-02-15T23:19:21.168Z,79.73
2023-02-15T23:24:24.733Z,80.21
2023-02-15T23:29:26.679Z,80.18
2023-02-15T23:34:29.439Z,80.21
2023-02-15T23:39:31.469Z,80.43
2023-02-15T23:44:33.455Z,80.92
2023-02-15T23:49:35.351Z,81.47
2023-02-15T23:54:37.198Z,81.01
2023-02-15T23:59:39.146Z,81.58
